createdAt,value
2022-08-11T00:00:54.080Z,3.1
2022-08-11T00:02:57.609Z,2
2022-08-11T00:05:00.954Z,2
2022-08-11T00:07:07.513Z,2.8
2022-08-11T00:09:10.975Z,2.8
2022-08-11T00:11:14.404Z,3.2
2022-08-11T00:13:17.797Z,2.7
2022-08-11T00:15:21.254Z,2.8
2022-08-11T00:17:24.681Z,3.1
2022-08-11T00:22:04.752Z,3.1
2022-08-11T00:27:44.992Z,2.6
2022-08-11T00:33:55.353Z,3.1
2022-08-11T00:38:05.292Z,4.4
2022-08-11T00:40:08.745Z,2.8
2022-08-11T00:42:12.126Z,3.2
2022-08-11T00:44:15.556Z,3.6
2022-08-11T00:46:19.020Z,3.5
2022-08-11T00:48:22.510Z,3.5
2022-08-11T00:50:28.941Z,3.7
2022-08-11T00:52:32.459Z,3.5
2022-08-11T00:54:35.812Z,3.1
2022-08-11T00:55:39.066Z,4.6
2022-08-11T00:59:45.925Z,3.3
2022-08-11T01:03:55.910Z,3.5
2022-08-11T01:05:59.321Z,3.3
2022-08-11T01:16:16.575Z,4.2
2022-08-11T01:20:47.806Z,4.1
2022-08-11T01:22:30.024Z,3.4
2022-08-11T01:26:36.899Z,3.2
2022-08-11T01:30:43.823Z,4.1
2022-08-11T01:32:50.408Z,4.1
2022-08-11T01:34:53.817Z,5
2022-08-11T01:41:04.177Z,3.6
2022-08-11T01:43:07.646Z,4.1
2022-08-11T01:47:17.658Z,4.7
2022-08-11T01:50:06.424Z,4.7
2022-08-11T01:51:24.605Z,5.1
2022-08-11T01:53:54.510Z,5.7
2022-08-11T01:55:57.999Z,4.7
2022-08-11T01:58:01.454Z,6.2
2022-08-11T02:04:14.949Z,4.7
2022-08-11T02:06:18.413Z,5.4
2022-08-11T02:10:29.656Z,5
2022-08-11T02:14:36.984Z,5.1
2022-08-11T02:18:43.889Z,5.2
2022-08-11T02:20:47.458Z,4.9
2022-08-11T02:22:50.840Z,5.7
2022-08-11T02:24:54.344Z,5
2022-08-11T02:26:57.811Z,4.9
2022-08-11T02:29:04.384Z,5.9
2022-08-11T02:31:08.848Z,5.5
2022-08-11T02:35:14.844Z,6.1
2022-08-11T02:37:23.565Z,5.1
2022-08-11T02:41:25.287Z,6
2022-08-11T02:43:31.839Z,6.5
2022-08-11T02:45:35.371Z,5.9
2022-08-11T02:47:38.811Z,5.4
2022-08-11T02:50:45.610Z,5.4
2022-08-11T02:52:49.115Z,5.1
2022-08-11T02:54:52.609Z,5.8
2022-08-11T02:56:59.195Z,6.3
2022-08-11T03:13:30.234Z,5.8
2022-08-11T03:19:40.725Z,6.3
2022-08-11T03:34:08.500Z,5.7
2022-08-11T03:44:28.909Z,7
2022-08-11T03:45:32.190Z,7
2022-08-11T03:47:35.728Z,7.1
2022-08-11T03:49:39.241Z,6.9
2022-08-11T03:51:51.922Z,7
2022-08-11T03:53:49.291Z,7.5
2022-08-11T03:55:52.798Z,7.5
2022-08-11T03:57:56.299Z,6.8
2022-08-11T03:59:59.807Z,6.3
2022-08-11T04:02:03.382Z,6.2
2022-08-11T04:04:06.795Z,7.6
2022-08-11T04:06:10.307Z,6.4
2022-08-11T04:08:16.886Z,6.6
2022-08-11T04:10:20.398Z,6.5
2022-08-11T04:12:36.084Z,6.6
2022-08-11T04:14:27.373Z,6.1
2022-08-11T04:16:30.864Z,6.9
2022-08-11T04:18:34.363Z,7
2022-08-11T04:20:37.887Z,7.4
2022-08-11T04:22:44.469Z,8
2022-08-11T04:24:50.411Z,7.6
2022-08-11T04:26:51.498Z,6.6
2022-08-11T04:28:55.001Z,6.7
2022-08-11T04:30:58.458Z,7.9
2022-08-11T04:33:01.948Z,5.9
2022-08-11T04:35:05.465Z,8.3
2022-08-11T04:37:12.088Z,8.1
2022-08-11T04:39:15.638Z,6.2
2022-08-11T04:41:19.110Z,8.3
2022-08-11T04:42:22.423Z,7.7
2022-08-11T04:44:26.533Z,7.4
2022-08-11T04:46:29.436Z,6.4
2022-08-11T04:50:39.540Z,8.8
2022-08-11T04:52:43.260Z,8
2022-08-11T04:54:46.563Z,7.8
2022-08-11T04:56:50.080Z,8
2022-08-11T04:58:53.578Z,8.2
2022-08-11T05:00:57.065Z,8.9
2022-08-11T05:03:00.607Z,9.5
2022-08-11T05:05:07.213Z,10.2
2022-08-11T05:07:10.693Z,9
2022-08-11T05:13:21.233Z,9.2
2022-08-11T05:15:24.774Z,9.5
2022-08-11T05:17:28.278Z,10.2
2022-08-11T05:19:34.881Z,9.9
2022-08-11T05:21:45.148Z,10.4
2022-08-11T05:23:41.915Z,10
2022-08-11T05:27:48.942Z,8.4
2022-08-11T05:29:52.474Z,9.4
2022-08-11T05:31:56.041Z,9.4
2022-08-11T05:40:39.490Z,10.5
2022-08-11T05:44:46.458Z,9
2022-08-11T05:48:56.579Z,9.6
2022-08-11T05:51:00.048Z,8.1
2022-08-11T05:53:03.850Z,9.3
2022-08-11T05:55:07.430Z,9.7
2022-08-11T05:57:10.521Z,9.7
2022-08-11T05:59:14.038Z,8
2022-08-11T06:01:20.655Z,10
2022-08-11T06:03:24.098Z,8.6
2022-08-11T06:05:27.593Z,8.5
2022-08-11T06:07:49.122Z,8.4
2022-08-11T06:09:34.575Z,9.3
2022-08-11T06:11:43.016Z,8.6
2022-08-11T06:13:41.544Z,8.6
2022-08-11T06:15:48.140Z,8.9
2022-08-11T06:17:51.618Z,8.1
2022-08-11T06:19:55.084Z,7.3
2022-08-11T06:21:58.544Z,7.2
2022-08-11T06:24:02.052Z,7.1
2022-08-11T06:26:05.521Z,6.8
2022-08-11T06:35:25.757Z,7.4
2022-08-11T06:37:32.172Z,7.2
2022-08-11T06:41:36.089Z,7.5
2022-08-11T06:43:42.642Z,6.4
2022-08-11T06:47:49.489Z,7.3
2022-08-11T06:49:52.936Z,7
2022-08-11T06:51:56.353Z,7.3
2022-08-11T06:54:04.065Z,6.5
2022-08-11T06:56:03.270Z,6.8
2022-08-11T06:58:09.761Z,5.7
2022-08-11T07:00:13.153Z,5.9
2022-08-11T07:02:16.610Z,5.7
2022-08-11T07:04:20.003Z,6.4
2022-08-11T07:06:23.442Z,6.4
2022-08-11T07:08:34.367Z,5.8
2022-08-11T07:10:30.215Z,5.8
2022-08-11T07:12:36.663Z,6.4
2022-08-11T07:14:39.857Z,6
2022-08-11T07:16:43.158Z,6.1
2022-08-11T07:18:46.593Z,5.6
2022-08-11T07:20:49.835Z,5.2
2022-08-11T07:22:53.233Z,5.8
2022-08-11T07:25:01.971Z,6
2022-08-11T07:27:02.861Z,5.8
2022-08-11T07:29:06.364Z,4.9
2022-08-11T07:31:09.478Z,3.8
2022-08-11T07:34:18.092Z,5.2
2022-08-11T07:40:28.576Z,5
2022-08-11T07:44:35.472Z,3.7
2022-08-11T07:48:41.459Z,4.9
2022-08-11T07:50:44.683Z,4.2
2022-08-11T07:52:47.861Z,4.3
2022-08-11T07:54:54.113Z,4.4
2022-08-11T07:57:09.419Z,4.2
2022-08-11T07:59:07.489Z,3.7
2022-08-11T08:01:03.751Z,3.7
2022-08-11T08:03:06.814Z,3.4
2022-08-11T08:05:10.002Z,3.3
2022-08-11T08:07:13.201Z,3.1
2022-08-11T08:11:27.081Z,3
2022-08-11T08:13:27.133Z,2.4
2022-08-11T08:17:33.421Z,1.8
2022-08-11T08:19:36.542Z,2
2022-08-11T08:23:45.781Z,1.8
2022-08-11T08:25:48.887Z,1.8
2022-08-11T08:27:51.963Z,1.9
2022-08-11T08:28:55.036Z,1.3
2022-08-11T08:30:58.149Z,1.9
2022-08-11T08:33:01.214Z,1.7
2022-08-11T08:35:04.274Z,1.6
2022-08-11T08:37:16.042Z,1.6
2022-08-11T08:39:13.503Z,1
2022-08-11T08:41:16.782Z,0.8
2022-08-11T08:43:19.512Z,1.9
2022-08-11T08:45:22.567Z,1.5
2022-08-11T08:52:01.007Z,1.8
2022-08-11T08:53:37.671Z,1.9
2022-08-11T08:55:45.338Z,1.4
2022-08-11T08:57:43.831Z,2.2
2022-08-11T08:59:48.865Z,1.4
2022-08-11T09:01:49.709Z,2.2
2022-08-11T09:04:06.991Z,1.5
2022-08-11T09:05:58.662Z,3
2022-08-11T09:08:01.618Z,2.1
2022-08-11T09:10:04.549Z,1.4
2022-08-11T09:16:13.402Z,1.5
2022-08-11T09:18:16.294Z,2
2022-08-11T09:22:25.221Z,1.9
2022-08-11T09:26:51.797Z,2.2
2022-08-11T09:28:54.676Z,1.5
2022-08-11T09:33:03.539Z,1.2
2022-08-11T09:35:06.433Z,1.6
2022-08-11T09:41:15.033Z,1.7
2022-08-11T09:43:17.892Z,1.7
2022-08-11T09:45:20.747Z,1.8
2022-08-11T09:47:26.707Z,1.6
2022-08-11T09:49:29.521Z,1.3
2022-08-11T09:51:32.372Z,2.1
2022-08-11T09:53:40.553Z,1.5
2022-08-11T09:55:38.041Z,1.3
2022-08-11T09:57:41.099Z,1.5
2022-08-11T09:59:43.696Z,1.8
2022-08-11T10:01:49.598Z,1.5
2022-08-11T10:03:52.404Z,2.1
2022-08-11T10:05:55.209Z,1.6
2022-08-11T10:07:58.015Z,1.5
2022-08-11T10:16:15.228Z,1.5
2022-08-11T10:21:20.666Z,1.1
2022-08-11T10:23:23.437Z,1.6
2022-08-11T10:25:26.174Z,1.1
2022-08-11T10:28:16.939Z,1.3
2022-08-11T10:33:45.739Z,0.9
2022-08-11T10:35:42.884Z,1.1
2022-08-11T10:42:06.184Z,1.1
2022-08-11T10:44:03.080Z,1.2
2022-08-11T10:45:59.550Z,2
2022-08-11T10:48:02.248Z,1.5
2022-08-11T10:50:05.328Z,1.3
2022-08-11T10:52:07.633Z,1
2022-08-11T10:54:12.426Z,1.2
2022-08-11T10:56:12.999Z,0.8
2022-08-11T10:58:18.809Z,1.5
2022-08-11T11:00:21.429Z,1
2022-08-11T11:02:24.079Z,1.5
2022-08-11T11:04:26.712Z,1.3
2022-08-11T11:06:30.028Z,1.2
2022-08-11T11:08:31.918Z,0.9
2022-08-11T11:10:34.510Z,1.1
2022-08-11T11:12:40.624Z,1.3
2022-08-11T11:14:46.374Z,1.4
2022-08-11T11:16:45.230Z,1.1
2022-08-11T11:17:48.060Z,1.3
2022-08-11T11:19:50.546Z,1.1
2022-08-11T11:23:56.080Z,1.2
2022-08-11T11:28:03.445Z,1.1
2022-08-11T11:30:05.874Z,1.1
2022-08-11T11:32:08.227Z,1.3
2022-08-11T11:36:13.004Z,0.8
2022-08-11T11:38:15.354Z,1
2022-08-11T11:40:20.838Z,1
2022-08-11T11:42:23.148Z,1.1
2022-08-11T11:44:25.465Z,0.8
2022-08-11T11:46:30.190Z,0.9
2022-08-11T11:48:30.119Z,0.8
2022-08-11T11:52:34.564Z,1.2
2022-08-11T11:58:44.375Z,0.9
2022-08-11T12:00:46.492Z,1.2
2022-08-11T12:02:48.639Z,1.3
2022-08-11T12:04:50.751Z,1.4
2022-08-11T12:06:52.797Z,0.7
2022-08-11T12:08:58.055Z,1
2022-08-11T12:11:00.218Z,1.2
2022-08-11T12:13:02.309Z,1
2022-08-11T12:14:10.198Z,1.3
2022-08-11T12:16:33.611Z,1.2
2022-08-11T12:18:08.979Z,0.8
2022-08-11T12:20:33.815Z,1.1
2022-08-11T12:22:16.143Z,1.1
2022-08-11T12:24:18.175Z,1.1
2022-08-11T12:26:26.551Z,1.2
2022-08-11T12:28:22.239Z,1
2022-08-11T12:36:33.303Z,2.2
2022-08-11T12:38:35.307Z,1.2
2022-08-11T12:41:13.770Z,1.1
2022-08-11T12:42:39.284Z,0.9
2022-08-11T12:44:41.304Z,1
2022-08-11T12:46:43.276Z,1.1
2022-08-11T12:49:00.001Z,1.1
2022-08-11T12:50:50.327Z,0.7
2022-08-11T12:52:52.273Z,0.9
2022-08-11T12:54:54.250Z,1.3
2022-08-11T12:56:56.233Z,1.1
2022-08-11T12:58:58.221Z,0.9
2022-08-11T13:01:00.223Z,1
2022-08-11T13:03:02.160Z,0.9
2022-08-11T13:05:07.210Z,1.4
2022-08-11T13:09:11.188Z,0.8
2022-08-11T13:11:56.300Z,1.1
2022-08-11T13:17:44.315Z,1.3
2022-08-11T13:24:00.562Z,1.3
2022-08-11T13:25:48.529Z,1.1
2022-08-11T13:29:52.384Z,1.1
2022-08-11T13:33:59.466Z,0.9
2022-08-11T13:36:01.311Z,1
2022-08-11T13:38:18.678Z,1.2
2022-08-11T13:46:14.183Z,1
2022-08-11T13:48:16.139Z,0.9
2022-08-11T13:52:20.140Z,1
2022-08-11T13:54:22.071Z,0.9
2022-08-11T13:56:24.015Z,1.1
2022-08-11T13:58:39.620Z,1.3
2022-08-11T14:00:31.004Z,1.1
2022-08-11T14:02:33.062Z,1
2022-08-11T14:04:36.456Z,0.8
2022-08-11T14:05:38.925Z,1.1
2022-08-11T14:07:41.114Z,1.2
2022-08-11T14:09:42.819Z,1
2022-08-11T14:12:21.994Z,1.2
2022-08-11T14:13:49.878Z,1
2022-08-11T14:15:51.804Z,1.1
2022-08-11T14:17:54.141Z,0.8
2022-08-11T14:19:55.659Z,1.1
2022-08-11T14:21:57.593Z,0.9
2022-08-11T14:23:59.505Z,1.6
2022-08-11T14:26:02.333Z,0.9
2022-08-11T14:28:32.098Z,1.3
2022-08-11T14:30:08.364Z,1.2
2022-08-11T14:32:10.312Z,0.9
2022-08-11T14:34:12.257Z,0.9
2022-08-11T14:36:14.216Z,1.1
2022-08-11T14:38:16.271Z,1
2022-08-11T14:40:18.335Z,0.9
2022-08-11T14:42:23.599Z,1
2022-08-11T14:44:25.734Z,1
2022-08-11T14:46:27.914Z,1.2
2022-08-11T14:48:30.241Z,0.9
2022-08-11T14:50:32.213Z,1.3
2022-08-11T14:52:34.437Z,1.8
2022-08-11T14:54:36.684Z,0.8
2022-08-11T14:58:44.605Z,0.9
2022-08-11T15:00:46.806Z,1.1
2022-08-11T15:07:56.756Z,1
2022-08-11T15:10:12.827Z,1.2
2022-08-11T15:14:07.306Z,2.4
2022-08-11T15:16:09.776Z,1
2022-08-11T15:20:14.814Z,1.1
2022-08-11T15:22:17.394Z,0.9
2022-08-11T15:26:25.601Z,1
2022-08-11T15:28:28.175Z,1
2022-08-11T15:30:33.356Z,1
2022-08-11T15:32:33.365Z,1.1
2022-08-11T15:34:35.976Z,1
2022-08-11T15:36:38.612Z,1.3
2022-08-11T15:38:44.338Z,0.8
2022-08-11T15:40:46.968Z,1.2
2022-08-11T15:42:49.832Z,1.4
2022-08-11T15:45:02.753Z,0.6
2022-08-11T15:46:55.236Z,1.5
2022-08-11T15:48:57.747Z,1.2
2022-08-11T15:51:00.421Z,0.7
2022-08-11T15:53:06.188Z,1
2022-08-11T15:55:08.995Z,1
2022-08-11T15:57:11.511Z,1.2
2022-08-11T15:58:14.387Z,1.1
2022-08-11T16:00:17.094Z,1.3
2022-08-11T16:02:19.804Z,0.9
2022-08-11T16:04:36.819Z,1.4
2022-08-11T16:08:33.187Z,0.9
2022-08-11T16:10:33.903Z,0.9
2022-08-11T16:12:36.302Z,1.1
2022-08-11T16:14:38.991Z,1.3
2022-08-11T16:18:44.367Z,1
2022-08-11T16:27:05.618Z,0.9
2022-08-11T16:27:09.131Z,0.8
2022-08-11T16:29:00.989Z,1.5
2022-08-11T16:31:03.718Z,0.9
2022-08-11T16:33:48.316Z,1.1
2022-08-11T16:35:12.266Z,1.3
2022-08-11T16:37:14.981Z,0.8
2022-08-11T16:39:17.735Z,0.6
2022-08-11T16:41:20.414Z,1.1
2022-08-11T16:43:23.146Z,0.6
2022-08-11T16:45:25.858Z,0.8
2022-08-11T16:47:53.837Z,0.8
2022-08-11T16:49:35.025Z,1.2
2022-08-11T16:51:37.112Z,1.3
2022-08-11T16:53:54.737Z,0.7
2022-08-11T16:56:00.942Z,0.9
2022-08-11T17:00:06.410Z,0.8
2022-08-11T17:02:12.221Z,0.9
2022-08-11T17:06:17.692Z,0.8
2022-08-11T17:08:20.411Z,0.6
2022-08-11T17:10:31.825Z,0.7
2022-08-11T17:12:25.869Z,0.6
2022-08-11T17:14:36.114Z,0.9
2022-08-11T17:18:37.160Z,0.9
2022-08-11T17:20:43.949Z,0.9
2022-08-11T17:24:45.347Z,0.9
2022-08-11T17:28:50.809Z,1.1
2022-08-11T17:30:56.617Z,1
2022-08-11T17:33:00.257Z,0.9
2022-08-11T17:37:04.816Z,0.8
2022-08-11T17:39:07.547Z,1
2022-08-11T17:41:10.306Z,0.9
2022-08-11T17:43:13.061Z,1.1
2022-08-11T17:45:18.900Z,1
2022-08-11T17:47:24.644Z,0.6
2022-08-11T17:49:24.424Z,0.9
2022-08-11T17:50:27.341Z,0.8
2022-08-11T17:52:35.140Z,0.9
2022-08-11T17:56:35.638Z,1
2022-08-11T18:02:47.072Z,0.7
2022-08-11T18:04:49.819Z,1.4
2022-08-11T18:08:55.388Z,0.8
2022-08-11T18:10:58.131Z,1.1
2022-08-11T18:13:03.977Z,1
2022-08-11T18:15:06.725Z,1.2
2022-08-11T18:19:12.125Z,1.1
2022-08-11T18:21:14.826Z,1
2022-08-11T18:23:17.521Z,0.9
2022-08-11T18:25:20.219Z,1.3
2022-08-11T18:27:25.985Z,1.2
2022-08-11T18:29:28.656Z,1.3
2022-08-11T18:34:03.946Z,1.6
2022-08-11T18:35:36.642Z,2.2
2022-08-11T18:37:39.316Z,2.1
2022-08-11T18:39:42.207Z,2
2022-08-11T18:41:47.771Z,1.9
2022-08-11T18:43:50.451Z,1.2
2022-08-11T18:46:05.270Z,1.4
2022-08-11T18:46:56.258Z,1.2
2022-08-11T18:48:58.826Z,1.2
2022-08-11T18:51:30.485Z,1.3
2022-08-11T18:53:04.285Z,1.2
2022-08-11T18:55:10.450Z,1.1
2022-08-11T18:57:12.949Z,0.8
2022-08-11T18:59:15.756Z,0.8
2022-08-11T19:01:18.614Z,1.7
2022-08-11T19:03:21.388Z,1.2
2022-08-11T19:06:06.169Z,1
2022-08-11T19:07:27.063Z,0.9
2022-08-11T19:09:32.983Z,1
2022-08-11T19:11:38.188Z,1.4
2022-08-11T19:13:43.322Z,2.2
2022-08-11T19:15:41.636Z,0.9
2022-08-11T19:17:46.022Z,1.1
2022-08-11T19:19:47.911Z,0.8
2022-08-11T19:21:50.387Z,0.8
2022-08-11T19:23:56.389Z,1
2022-08-11T19:25:59.335Z,1
2022-08-11T19:28:02.291Z,1.1
2022-08-11T19:30:14.005Z,1.1
2022-08-11T19:32:08.184Z,1.1
2022-08-11T19:34:11.182Z,1.4
2022-08-11T19:36:14.152Z,0.9
2022-08-11T19:38:20.251Z,1.2
2022-08-11T19:40:23.141Z,0.9
2022-08-11T19:42:26.102Z,0.9
2022-08-11T19:43:29.151Z,0.8
2022-08-11T19:47:35.083Z,0.9
2022-08-11T19:53:47.093Z,1.1
2022-08-11T19:55:50.088Z,1.3
2022-08-11T19:59:57.594Z,0.9
2022-08-11T20:06:09.645Z,1.8
2022-08-11T20:08:12.679Z,1.4
2022-08-11T20:10:15.673Z,1.5
2022-08-11T20:16:24.778Z,1.3
2022-08-11T20:18:27.802Z,1.2
2022-08-11T20:20:33.866Z,1
2022-08-11T20:22:36.919Z,1.7
2022-08-11T20:24:39.953Z,1
2022-08-11T20:26:42.996Z,1.4
2022-08-11T20:28:46.081Z,1.1
2022-08-11T20:30:49.124Z,1.3
2022-08-11T20:37:01.391Z,1
2022-08-11T20:39:04.439Z,1
2022-08-11T20:41:27.815Z,1
2022-08-11T20:44:05.977Z,1.3
2022-08-11T20:53:50.905Z,1.6
2022-08-11T20:55:53.520Z,1.1
2022-08-11T20:58:01.560Z,1
2022-08-11T20:59:58.805Z,1.7
2022-08-11T21:02:04.996Z,1.7
2022-08-11T21:04:08.060Z,2.1
2022-08-11T21:06:11.312Z,2
2022-08-11T21:20:36.209Z,1.9
2022-08-11T21:24:46.774Z,1.8
2022-08-11T21:26:45.712Z,1.8
2022-08-11T21:28:48.916Z,1.8
2022-08-11T21:30:57.658Z,1.3
2022-08-11T21:32:58.294Z,1.5
2022-08-11T21:35:01.466Z,1.9
2022-08-11T21:36:04.688Z,1.7
2022-08-11T21:38:07.862Z,1.6
2022-08-11T21:40:16.351Z,1.7
2022-08-11T21:42:14.226Z,1.4
2022-08-11T21:44:20.466Z,1.7
2022-08-11T21:48:26.825Z,1.9
2022-08-11T21:50:30.045Z,1
2022-08-11T21:52:33.216Z,1.5
2022-08-11T21:54:36.419Z,1.5
2022-08-11T21:56:39.619Z,1.6
2022-08-11T21:58:45.862Z,1.6
2022-08-11T22:00:49.067Z,1.6
2022-08-11T22:02:53.154Z,1.1
2022-08-11T22:04:55.498Z,1.8
2022-08-11T22:06:58.717Z,1.9
2022-08-11T22:09:01.962Z,1.6
2022-08-11T22:11:05.215Z,1.9
2022-08-11T22:17:17.862Z,1.9
2022-08-11T22:19:21.082Z,1.5
2022-08-11T22:22:02.413Z,1.6
2022-08-11T22:23:35.265Z,1.6
2022-08-11T22:25:38.559Z,1.7
2022-08-11T22:27:41.831Z,2.1
2022-08-11T22:32:46.958Z,1
2022-08-11T22:34:53.478Z,1.8
2022-08-11T22:38:56.678Z,2
2022-08-11T22:41:02.949Z,1.4
2022-08-11T22:43:06.183Z,1.7
2022-08-11T22:45:09.446Z,1.9
2022-08-11T22:47:12.690Z,1.5
2022-08-11T22:49:15.950Z,2
2022-08-11T22:53:22.434Z,2
2022-08-11T22:55:28.695Z,1.7
2022-08-11T22:59:35.321Z,2.3
2022-08-11T23:01:38.599Z,2.2
2022-08-11T23:03:41.909Z,2.1
2022-08-11T23:05:45.195Z,1.8
2022-08-11T23:07:49.853Z,1.9
2022-08-11T23:09:54.824Z,2.5
2022-08-11T23:12:06.565Z,2.5
2022-08-11T23:14:01.561Z,2.2
2022-08-11T23:16:04.913Z,2.4
2022-08-11T23:18:08.149Z,1.9
2022-08-11T23:22:14.715Z,2.5
2022-08-11T23:26:24.377Z,2.1
2022-08-11T23:28:27.765Z,2.5
2022-08-11T23:31:43.728Z,2.2
2022-08-11T23:37:47.561Z,2.5
2022-08-11T23:43:57.594Z,2.7
2022-08-11T23:46:00.887Z,2.3
2022-08-11T23:48:04.252Z,2.5
2022-08-11T23:50:08.670Z,2.9
2022-08-11T23:52:14.051Z,3
2022-08-11T23:54:17.437Z,2.9
2022-08-11T23:56:21.694Z,2.9
2022-08-11T23:58:24.126Z,2.9
